Date,TemperatureHighF,TemperatureAvgF,TemperatureLowF,DewpointHighF,DewpointAvgF,DewpointLowF,HumidityHigh,HumidityAvg,HumidityLow,PressureMaxIn,PressureMinIn,WindSpeedMaxMPH,WindSpeedAvgMPH,GustSpeedMaxMPH,PrecipitationSumIn
2013-3-27,48.0,33.0,37.0,22.0,-10.3,-99.9,52,28,30,30.24,30.19,13,-7,0,0.00
2013-3-28,54.0,34.5,24.0,26.0,4.7,-99.9,90,45,25,30.29,30.19,11,5,0,0.00
2013-3-29,59.0,38.8,24.0,30.0,17.4,-99.9,93,59,22,30.21,30.21,8,-34,0,0.00
2013-3-30,65.0,47.1,34.0,40.0,21.3,-99.9,90,54,28,30.23,30.11,6,-28,0,0.00
2013-3-31,67.0,48.6,43.0,54.0,31.2,-99.9,93,72,54,30.02,29.86,10,5,0,0.00
2013-4-1,70.0,52.7,47.0,50.0,30.0,-99.9,93,57,30,29.91,29.86,13,5,0,0.00
2013-4-2,59.0,45.6,31.0,38.0,22.4,-99.9,92,48,20,30.13,30.08,11,4,0,0.00
2013-4-3,58.0,46.0,38.0,35.0,19.0,-99.9,78,38,19,30.30,30.25,9,3,0,0.00
2013-4-4,46.0,36.0,37.0,36.0,13.3,-99.9,90,57,30,30.16,29.99,11,5,0,0.00
2013-4-5,65.0,47.3,36.0,44.0,34.2,-99.9,91,68,27,29.98,29.93,8,5,0,0.00
2013-4-6,65.0,48.8,31.0,37.0,31.1,27.0,93,57,25,30.23,30.20,7,2,0,0.00
2013-4-7,69.0,50.4,36.0,45.0,26.6,-99.9,92,52,33,30.20,30.14,12,5,0,0.00
2013-4-8,77.0,60.8,46.0,54.0,41.3,-99.9,90,58,37,30.15,30.08,12,5,0,0.00
2013-4-9,82.0,67.6,49.0,56.0,51.2,-99.9,93,60,34,30.11,30.10,10,4,0,0.00
2013-4-10,84.0,66.2,56.0,60.0,42.0,-99.9,90,55,38,30.14,30.14,10,5,0,0.00
2013-4-11,79.0,59.0,61.0,64.0,30.3,-99.9,88,55,46,29.99,29.82,11,6,0,0.00
2013-4-12,81.0,54.6,62.0,66.0,20.2,-99.9,91,49,33,29.81,29.64,13,8,0,0.00
2013-4-13,73.0,61.3,44.0,44.0,38.1,34.0,85,45,23,29.97,29.96,9,4,0,0.00
2013-4-14,77.0,57.2,39.0,49.0,18.2,-99.9,93,51,24,30.13,30.04,9,-124,0,0.00
2013-4-15,68.0,59.2,56.0,57.0,50.3,-99.9,91,80,61,30.18,30.04,4,-26,0,0.00
2013-4-16,75.0,63.3,53.0,61.0,44.5,-99.9,94,72,55,30.32,30.22,6,2,0,0.00
2013-4-17,80.0,66.1,52.0,62.0,46.6,-99.9,94,70,45,30.27,30.14,6,-30,0,0.00
2013-4-18,79.0,62.1,61.0,62.0,38.3,-99.9,89,63,46,30.22,30.05,11,-51,0,0.00
2013-4-19,78.0,47.0,63.0,67.0,11.7,-99.9,91,58,63,30.05,29.76,12,-63,0,0.00
2013-4-20,63.0,39.3,42.0,54.0,-1.1,-99.9,91,42,28,30.21,29.90,9,-64,0,0.00
2013-4-21,60.0,38.5,35.0,39.0,4.8,-99.9,93,57,39,30.50,30.42,8,-48,0,0.00
2013-4-22,61.0,38.5,37.0,39.0,3.0,-99.9,86,47,28,30.47,30.27,8,-44,0,0.00
2013-4-23,69.0,45.9,46.0,51.0,15.4,-99.9,92,63,48,30.31,30.14,5,3,0,0.00
2013-4-24,73.0,48.1,43.0,56.0,20.7,-99.9,93,67,50,30.16,30.01,13,-36,0,0.00
2013-4-25,69.0,48.2,44.0,55.0,15.6,-99.9,91,49,23,30.30,30.10,9,-5,0,0.00
2013-4-26,70.0,54.0,35.0,49.0,32.1,-99.9,93,58,23,30.46,30.30,6,-60,0,0.00
2013-4-27,67.0,58.0,50.0,54.0,47.6,44.0,90,70,43,30.39,30.31,5,2,0,0.00
2013-4-28,57.0,54.4,53.0,54.0,51.5,49.0,93,89,79,30.28,30.16,6,2,0,0.00
2013-4-29,70.0,61.1,56.0,61.0,56.9,54.0,93,86,67,30.07,30.00,7,2,9,0.00
2013-4-30,66.0,56.5,52.0,58.0,48.5,-99.9,93,84,73,30.22,30.04,5,2,11,0.00
2013-5-1,62.0,46.1,51.0,57.0,22.8,-99.9,93,69,77,30.34,30.20,6,3,16,0.00
2013-5-2,60.0,53.3,53.0,55.0,44.2,-99.9,92,83,84,30.36,30.30,4,3,13,0.00
2013-5-3,66.0,46.7,48.0,52.0,21.6,-99.9,93,69,46,30.29,30.18,6,3,17,0.00
2013-5-4,62.0,39.6,48.0,51.0,7.3,-99.9,89,60,58,30.19,30.09,7,4,18,0.00
2013-5-5,56.0,35.7,49.0,53.0,0.2,-99.9,91,57,76,30.09,29.98,7,4,18,0.00
2013-5-6,68.0,51.1,55.0,61.0,34.2,-99.9,92,76,74,29.94,29.85,5,3,16,0.00
2013-5-7,68.0,57.4,53.0,56.0,48.9,-99.9,93,79,44,29.97,29.89,8,2,18,0.00
2013-5-8,70.0,59.5,52.0,60.0,53.9,50.0,93,82,63,30.03,29.95,6,2,10,0.00
2013-5-9,79.0,61.6,47.0,60.0,48.6,-99.9,93,72,38,30.10,30.02,7,2,13,0.00
2013-5-10,82.0,63.0,51.0,62.0,46.9,-99.9,93,68,44,30.11,29.98,9,3,19,0.00
2013-5-11,78.0,70.8,63.0,66.0,38.5,-99.9,89,63,51,30.00,29.83,8,-145,16,0.00
2013-5-12,70.0,62.0,47.0,60.0,23.3,-99.9,90,52,27,30.06,29.86,10,-110,26,0.00
2013-5-13,64.0,52.1,37.0,41.0,9.8,-99.9,93,50,27,30.20,30.07,7,-167,16,0.00
2013-5-14,70.0,53.2,34.0,45.0,21.8,-99.9,93,57,31,30.29,30.10,6,-123,14,0.00
2013-5-15,86.0,67.6,49.0,61.0,38.3,-99.9,85,56,38,30.10,29.95,6,-103,15,0.00
2013-5-16,81.0,64.9,55.0,65.0,18.5,-99.9,93,63,38,30.04,29.95,7,-75,12,0.00
2013-5-17,85.0,70.0,57.0,66.0,50.8,-99.9,93,71,40,30.12,30.03,6,-27,10,0.00
2013-5-18,72.0,64.5,57.0,67.0,59.3,-99.9,93,88,77,30.20,30.12,6,-28,14,0.00
2013-5-19,73.0,66.0,63.0,68.0,58.7,-99.9,93,88,83,30.19,30.09,8,-32,17,0.00
2013-5-20,75.0,67.2,67.0,71.0,59.2,-99.9,94,89,80,30.15,30.06,6,-26,16,0.00
2013-5-21,83.0,67.3,67.0,71.0,41.9,-99.9,94,73,61,30.09,30.05,6,-25,13,0.00
2013-5-22,81.0,65.2,67.0,69.0,35.3,-99.9,94,69,61,29.99,29.99,8,-97,16,0.00
2013-5-23,77.0,68.3,63.0,66.0,51.7,-99.9,93,78,69,29.97,29.87,7,-80,14,0.00
2013-5-24,67.0,62.3,51.0,60.0,39.4,-99.9,93,64,38,0.00,40.00,11,-17,24,0.00
2013-5-25,73.0,56.2,38.0,52.0,33.5,-99.9,93,58,29,0.00,40.00,7,-67,17,0.00
2013-5-26,74.0,59.0,47.0,53.0,43.7,-99.9,92,67,35,0.00,40.00,6,-33,11,0.00
2013-5-27,79.0,63.6,47.0,60.0,48.9,-99.9,93,69,41,0.00,40.00,6,-47,11,0.00
2013-5-28,82.0,68.5,57.0,64.0,51.4,-99.9,92,73,53,0.00,40.00,8,-82,16,0.00
2013-5-29,82.0,71.9,58.0,64.0,57.8,-99.9,93,69,44,0.00,40.00,6,-28,14,0.00
2013-5-30,83.0,71.5,58.0,65.0,55.4,-99.9,93,71,46,0.00,40.00,7,2,13,0.00
2013-5-31,83.0,70.3,59.0,67.0,59.4,-99.9,94,75,49,0.00,40.00,7,3,12,0.00
2013-6-1,84.0,70.7,65.0,67.0,54.6,-99.9,92,70,49,0.00,40.00,8,4,15,0.00
2013-6-2,83.0,65.4,68.0,70.0,45.9,-99.9,93,69,55,0.00,40.00,7,4,16,0.00
2013-6-3,81.0,69.7,64.0,69.0,63.2,-99.9,93,84,62,29.97,29.97,10,2,19,0.00
2013-6-4,75.0,68.2,62.0,64.0,53.5,-99.9,93,78,66,0.00,40.00,5,-64,11,0.00
2013-6-5,76.0,67.6,61.0,64.0,42.7,-99.9,93,72,62,0.00,40.00,4,-20,11,0.00
2013-6-6,73.0,66.7,65.0,70.0,60.1,-99.9,93,89,71,29.87,29.87,6,-125,14,0.00
2013-6-7,74.0,68.5,67.0,69.0,52.4,-99.9,93,84,82,29.70,29.70,6,-98,14,0.00
2013-6-8,81.0,67.0,64.0,70.0,46.8,-99.9,94,77,55,0.00,40.00,9,-12,16,0.00
2013-6-9,85.0,71.2,62.0,70.0,57.2,-99.9,94,77,55,0.00,40.00,11,-108,22,0.00
2013-6-10,81.0,66.6,70.0,72.0,43.4,-99.9,93,76,71,30.04,30.04,8,-83,17,0.00
2013-6-11,83.0,70.3,66.0,68.0,36.5,-99.9,93,65,48,29.99,29.97,6,-170,17,0.00
2013-6-12,89.0,71.0,60.0,76.0,52.6,-99.9,93,74,56,30.02,29.93,6,-13,13,0.00
2013-6-13,91.0,72.9,65.0,74.0,55.4,-99.9,94,74,44,29.92,29.70,10,-28,24,0.00
2013-6-14,79.0,65.5,58.0,63.0,27.3,-99.9,93,57,42,30.06,29.79,8,-86,19,0.00
2013-6-15,82.0,67.6,55.0,63.0,49.1,-99.9,93,70,42,30.17,30.06,5,2,12,0.00
2013-6-16,84.0,67.3,62.0,68.0,41.5,-99.9,93,66,53,30.17,30.05,7,-126,16,0.00
2013-6-17,83.0,75.1,70.0,71.0,61.8,-99.9,87,75,56,30.08,30.05,5,-13,12,0.00
2013-6-18,82.0,69.9,68.0,71.0,60.2,-99.9,93,82,64,30.01,29.83,6,-97,17,0.00
2013-6-19,80.0,71.2,62.0,67.0,51.2,-99.9,94,75,56,30.16,29.93,4,2,9,0.00
2013-6-20,80.0,70.0,61.0,64.0,49.5,-99.9,93,71,52,30.28,30.16,4,2,9,0.00
2013-6-22,80.0,74.2,67.0,69.0,41.1,-99.9,92,67,60,30.27,30.16,5,-190,9,0.00
2013-6-23,85.0,72.0,64.0,72.0,57.4,-99.9,93,76,59,30.26,30.17,5,2,11,0.00
2013-6-24,85.0,66.1,68.0,72.0,47.2,-99.9,93,75,59,30.25,30.15,8,3,18,0.00
2013-6-25,88.0,71.5,67.0,72.0,57.3,-99.9,93,76,52,30.17,30.06,6,-24,14,0.00
2013-6-26,88.0,67.9,68.0,72.0,50.7,-99.9,92,77,53,30.08,29.94,6,3,12,0.00
2013-6-27,86.0,66.2,68.0,74.0,38.7,-99.9,93,72,59,29.98,29.77,6,4,15,0.00
2013-6-28,88.0,72.0,68.0,74.0,60.1,-99.9,93,80,54,29.79,29.64,6,3,15,0.00
2013-6-29,84.0,75.4,68.0,71.0,68.4,66.0,93,80,56,29.76,29.65,7,3,14,0.00
2013-6-30,83.0,66.1,69.0,72.0,49.8,-99.9,92,75,65,29.88,29.75,7,3,13,0.00
2013-7-1,80.0,64.4,68.0,71.0,47.4,-99.9,93,77,72,29.99,29.88,6,3,13,0.00
2013-7-2,77.0,57.7,72.0,72.0,34.0,-99.9,92,70,81,30.21,30.03,8,4,16,0.00
2013-7-3,81.0,71.4,72.0,74.0,63.4,-99.9,93,84,76,30.27,30.18,7,4,12,0.00
2013-7-4,84.0,68.2,71.0,75.0,52.4,-99.9,93,80,68,30.31,30.22,7,3,21,0.00
2013-7-5,86.0,70.9,69.0,74.0,59.0,-99.9,93,81,64,30.31,30.22,6,3,13,0.00
2013-7-6,85.0,75.7,69.0,73.0,65.5,-99.9,93,81,57,30.29,30.16,7,3,18,0.00
2013-7-7,85.0,74.9,69.0,74.0,67.6,-99.9,93,82,62,30.23,30.12,6,3,22,0.00
2013-7-8,86.0,75.5,71.0,72.0,70.2,67.0,93,84,54,30.22,30.15,4,2,9,0.00
2013-7-9,87.0,76.3,71.0,74.0,68.0,-99.9,93,80,61,30.20,30.10,6,3,12,0.00
2013-7-10,86.0,73.4,70.0,73.0,62.9,-99.9,93,79,62,30.15,29.99,6,-20,13,0.00
2013-7-11,77.0,73.7,72.0,73.0,70.9,69.0,93,91,85,30.02,29.93,5,2,10,0.00
2013-7-12,76.0,67.3,69.0,70.0,57.4,-99.9,93,81,72,30.07,29.93,6,3,13,0.00
2013-7-13,78.0,72.6,67.0,71.0,68.7,65.0,93,88,78,30.18,30.06,4,2,11,0.00
2013-7-14,85.0,75.5,72.0,74.0,70.2,69.0,92,84,61,30.34,30.20,3,2,9,0.00
2013-7-15,87.0,75.5,66.0,73.0,65.0,-99.9,93,79,50,30.38,30.30,3,1,6,0.00
2013-7-16,91.0,80.3,65.0,75.0,63.9,-99.9,93,70,48,30.34,30.25,6,2,8,0.00
2013-7-17,90.0,77.5,72.0,76.0,69.7,-99.9,93,81,57,30.28,30.16,4,1,8,0.00
2013-7-18,91.0,75.2,70.0,76.0,61.0,-99.9,94,78,53,30.21,30.08,5,-32,8,0.00
2013-7-19,87.0,66.6,71.0,75.0,49.5,-99.9,94,81,63,30.16,30.03,5,2,13,0.00
2013-7-20,86.0,67.9,72.0,75.0,50.3,-99.9,93,74,67,30.07,29.97,6,4,17,0.00
2013-7-21,87.0,68.9,71.0,74.0,54.9,-99.9,94,82,63,30.04,29.96,7,3,16,0.00
2013-7-22,85.0,71.9,70.0,72.0,61.9,-99.9,93,81,63,30.01,29.88,6,2,15,0.00
2013-7-23,87.0,77.3,71.0,72.0,66.6,-99.9,93,75,51,29.90,29.78,6,3,16,0.00
2013-7-24,90.0,76.0,66.0,72.0,65.5,-99.9,93,75,45,29.92,29.79,8,2,15,0.00
2013-7-25,79.0,70.7,66.0,68.0,62.7,-99.9,92,78,63,30.08,29.88,5,3,13,0.00
2013-7-26,82.0,71.4,62.0,69.0,63.1,60.0,93,77,52,30.16,30.07,4,2,10,0.00
2013-7-27,79.0,69.5,64.0,70.0,65.8,62.0,93,88,70,30.10,29.98,5,2,13,0.00
2013-7-28,85.0,75.0,68.0,72.0,67.7,65.0,93,79,53,30.05,29.97,5,2,11,0.00
2013-7-29,85.0,71.8,64.0,70.0,57.0,-99.9,93,74,45,30.21,30.04,6,2,14,0.00
2013-7-30,82.0,71.2,60.0,72.0,63.8,58.0,93,79,51,30.28,30.19,4,1,9,0.00
2013-7-31,81.0,74.3,68.0,72.0,46.8,-99.9,93,73,60,30.20,30.04,7,-22,13,0.00
2013-8-1,84.0,75.3,70.0,74.0,50.2,-99.9,92,76,64,30.05,29.92,5,-23,10,0.00
2013-8-2,87.0,75.6,70.0,71.0,38.9,-99.9,93,65,46,30.08,29.97,3,-9,7,0.00
2013-8-3,87.0,77.5,67.0,74.0,38.5,-99.9,93,67,57,30.07,29.96,6,-180,13,0.00
2013-8-4,84.0,74.1,67.0,69.0,41.0,-99.9,93,68,45,30.07,29.96,7,-102,14,0.00
2013-8-5,81.0,72.8,62.0,69.0,32.0,-99.9,93,63,55,30.14,30.04,5,-80,11,0.00
2013-8-6,78.0,66.0,64.0,68.0,33.2,-99.9,92,69,68,30.11,30.04,7,-190,17,0.00
2013-8-7,83.0,74.7,67.0,73.0,47.2,-99.9,93,72,57,30.14,30.07,7,-193,14,0.00
2013-8-8,83.0,62.4,67.0,75.0,43.0,-99.9,93,78,66,30.13,30.05,4,2,10,0.00
2013-8-9,89.0,62.0,71.0,75.0,38.4,-99.9,93,75,59,30.10,30.05,6,3,15,0.00
2013-8-10,89.0,72.3,71.0,76.0,62.7,-99.9,93,81,62,30.15,30.09,9,2,24,0.00
2013-8-11,89.0,78.0,69.0,76.0,71.0,67.0,93,80,54,30.16,30.06,4,2,8,0.00
2013-8-12,88.0,78.4,69.0,76.0,70.9,67.0,94,79,52,30.10,30.00,3,1,8,0.00
2013-8-13,86.0,69.1,70.0,73.0,57.4,-99.9,93,80,64,30.01,29.85,6,2,12,0.00
2013-8-14,74.0,68.0,60.0,68.0,53.1,-99.9,93,74,58,30.08,29.89,6,2,11,0.00
2013-8-15,72.0,53.2,56.0,58.0,31.4,-99.9,92,69,52,30.21,30.13,4,2,10,0.00
2013-8-16,70.0,60.8,54.0,60.0,45.5,-99.9,92,76,64,30.21,30.14,4,1,8,0.00
2013-8-17,66.0,62.9,59.0,64.0,60.2,57.0,92,90,87,30.23,30.18,6,-182,12,0.00
2013-8-18,78.0,67.6,65.0,67.0,43.3,-99.9,92,75,67,30.26,30.16,4,-24,8,0.00
2013-8-19,76.0,62.3,65.0,69.0,49.9,-99.9,92,86,72,30.23,30.15,3,1,6,0.00
2013-8-20,80.0,68.2,62.0,71.0,60.8,-99.9,93,86,67,30.23,30.16,2,1,4,0.00
2013-8-21,81.0,73.7,69.0,73.0,56.8,-99.9,93,82,73,30.27,30.16,5,2,10,0.00
2013-8-22,86.0,76.1,70.0,73.0,59.0,-99.9,93,78,58,30.19,30.05,4,-20,9,0.00
2013-8-23,85.0,74.5,64.0,72.0,37.1,-99.9,93,67,55,30.13,30.00,6,-98,13,0.00
2013-8-24,80.0,70.2,61.0,63.0,42.4,-99.9,92,66,46,30.34,30.13,5,-265,12,0.00
2013-8-25,77.0,65.2,56.0,63.0,42.8,-99.9,92,70,52,30.44,30.34,4,-145,9,0.00
2013-8-26,81.0,68.4,51.0,66.0,38.7,-99.9,92,65,44,30.36,30.17,3,2,8,0.00
2013-8-27,73.0,61.4,59.0,66.0,58.6,57.0,92,90,78,30.18,30.10,1,1,3,0.00
2013-8-29,85.0,61.1,71.0,72.0,32.3,-99.9,92,67,59,29.99,29.92,5,3,12,0.00
2013-8-30,86.0,76.1,64.0,70.0,65.6,61.0,92,73,44,30.08,29.99,2,1,5,0.00
2013-8-31,86.0,73.5,62.0,73.0,52.4,-99.9,93,75,60,30.01,29.93,5,-112,14,0.00
2013-9-1,88.0,71.9,64.0,73.0,47.8,-99.9,93,76,61,29.95,29.84,6,-93,12,0.00
2013-9-2,86.0,75.7,66.0,73.0,55.5,-99.9,93,76,59,29.94,29.86,4,2,8,0.00
2013-9-3,86.0,75.3,67.0,74.0,55.9,-99.9,93,76,55,30.00,29.86,4,2,10,0.00
2013-9-4,85.0,71.0,62.0,70.0,63.0,59.0,92,78,50,30.13,30.01,3,2,7,0.00
2013-9-5,86.0,68.9,59.0,65.0,49.5,-99.9,93,73,34,30.16,30.09,3,1,7,0.00
2013-9-6,79.0,67.7,59.0,63.0,49.4,-99.9,92,70,47,30.24,30.14,4,2,10,0.00
2013-9-7,82.0,66.8,55.0,66.0,59.0,53.0,92,78,50,30.18,30.03,4,2,8,0.00
2013-9-8,85.0,70.8,58.0,70.0,48.7,-99.9,93,67,46,30.04,29.97,4,1,10,0.00
2013-9-9,85.0,74.5,62.0,72.0,41.9,-99.9,93,68,50,30.18,30.05,3,1,8,0.00
2013-9-10,88.0,74.0,63.0,71.0,66.1,61.0,93,78,49,30.28,30.19,3,2,9,0.00
2013-9-11,88.0,74.8,63.0,70.0,66.0,61.0,92,76,49,30.25,30.13,6,2,11,0.00
2013-9-12,89.0,75.5,66.0,74.0,68.4,64.0,92,80,52,30.11,29.87,4,2,10,0.00
2013-9-13,82.0,73.0,61.0,67.0,59.6,52.0,92,66,38,29.96,29.82,7,3,14,0.00
2013-9-14,75.0,63.2,53.0,58.0,50.9,48.0,92,65,45,30.17,29.96,5,2,12,0.00
2013-9-15,78.0,56.8,48.0,63.0,47.7,-99.9,92,80,49,30.26,30.16,4,2,8,0.00
2013-9-16,81.0,69.8,61.0,67.0,57.1,-99.9,92,71,48,30.21,30.14,4,2,12,0.00
2013-9-17,72.0,39.1,54.0,57.0,-4.3,-99.9,91,60,43,30.36,30.24,4,2,13,0.00
2013-9-18,54.0,50.8,48.0,51.0,48.3,46.0,92,91,89,30.34,30.31,2,1,5,0.00
2013-9-19,77.0,56.5,51.0,65.0,41.8,-99.9,92,77,51,30.23,30.13,3,-35,9,0.00
2013-9-20,79.0,58.9,62.0,67.0,41.6,-99.9,92,78,66,30.13,30.01,5,1,10,0.00
2013-9-21,77.0,52.2,63.0,68.0,25.0,-99.9,92,72,70,30.01,29.77,7,3,16,0.00
2013-9-22,75.0,44.7,54.0,61.0,7.8,-99.9,92,60,47,29.95,29.77,7,3,17,0.00
2013-9-23,70.0,57.0,52.0,57.0,52.2,48.0,92,85,54,30.11,29.95,4,1,9,0.00
2013-9-24,76.0,58.7,49.0,61.0,53.1,47.0,92,83,47,30.14,29.99,4,1,7,0.00
2013-9-25,72.0,58.3,48.0,60.0,53.8,46.0,92,85,57,30.00,29.92,2,1,4,0.00
2013-9-26,73.0,60.9,52.0,57.0,53.7,49.0,92,79,47,30.09,29.93,3,1,9,0.00
2013-9-27,73.0,56.0,45.0,57.0,49.9,43.0,92,82,50,30.23,30.09,4,1,13,0.00
2013-9-28,68.0,45.7,45.0,54.0,23.2,-99.9,92,72,53,30.31,30.22,5,-84,12,0.00
2013-9-29,70.0,52.1,48.0,55.0,33.7,-99.9,92,75,46,30.22,30.09,4,2,10,0.00
2013-9-30,75.0,57.2,45.0,59.0,49.6,43.0,92,78,44,30.15,30.05,3,1,6,0.00
2013-10-1,67.0,62.1,58.0,63.0,59.2,55.0,92,90,86,30.13,30.10,1,1,1,0.00
2013-10-2,84.0,65.9,51.0,63.0,55.6,48.0,92,73,39,30.19,30.10,4,1,9,0.00
2013-10-3,84.0,67.3,54.0,65.0,57.5,52.0,92,74,41,30.17,30.10,5,2,12,0.00
2013-10-4,84.0,63.7,54.0,63.0,56.9,52.0,92,81,45,30.19,30.11,3,1,6,0.00
2013-10-5,85.0,59.5,56.0,66.0,43.6,-99.9,92,73,51,30.17,30.13,3,1,7,0.00
2013-10-6,83.0,44.1,59.0,67.0,2.0,-99.9,92,49,47,30.10,29.97,7,-49,14,0.00
2013-10-7,71.0,38.4,63.0,69.0,-9.2,-99.9,91,45,61,30.05,29.87,8,5,18,0.00
2013-10-8,64.0,59.6,56.0,50.0,46.9,45.0,75,62,53,30.26,30.05,7,4,18,0.00
2013-10-9,69.0,59.0,53.0,51.0,47.7,45.0,76,66,47,30.24,30.17,8,5,18,0.00
2013-10-10,65.0,43.2,54.0,58.0,12.5,-99.9,89,68,73,30.14,30.01,7,-29,14,0.00
2013-10-11,71.0,47.3,58.0,62.0,12.3,-99.9,92,72,63,30.02,29.96,5,2,9,0.00
2013-10-12,69.0,45.9,53.0,62.0,8.2,-99.9,92,59,72,30.13,30.01,6,2,10,0.00
2013-10-13,66.0,34.2,61.0,61.0,-15.9,-99.9,91,61,81,30.26,30.13,5,3,14,0.00
2013-10-14,64.0,32.4,59.0,58.0,-18.6,-99.9,91,51,80,30.29,30.22,5,3,13,0.00
2013-10-15,71.0,41.9,52.0,56.0,3.3,-99.9,92,56,44,30.24,30.11,6,-19,12,0.00
2013-10-16,74.0,64.1,56.0,60.0,53.4,-99.9,91,76,54,30.12,30.00,3,1,8,0.00
2013-10-17,70.0,64.2,59.0,63.0,59.7,56.0,92,86,69,30.01,29.92,5,-69,9,0.00
2013-10-18,69.0,54.9,52.0,62.0,35.9,-99.9,91,70,46,30.09,29.93,6,2,14,0.00
2013-10-19,63.0,56.7,51.0,58.0,53.8,48.0,92,89,82,30.02,29.88,4,1,8,0.00
2013-10-20,66.0,44.7,39.0,48.0,25.9,-99.9,92,71,33,30.15,29.95,7,2,15,0.00
2013-10-21,68.0,50.4,33.0,49.0,41.2,31.0,92,74,43,30.19,30.05,4,2,9,0.00
2013-10-22,67.0,56.5,49.0,56.0,47.6,-99.9,91,77,52,30.04,29.85,5,2,10,0.00
2013-10-23,64.0,42.8,46.0,57.0,5.1,-99.9,92,44,32,30.04,29.74,10,-13,23,0.00
2013-10-24,57.0,42.7,29.0,38.0,31.8,27.0,92,68,37,30.20,30.05,7,-18,17,0.00
2013-10-25,53.0,43.1,31.0,36.0,30.4,25.0,90,63,33,30.40,30.22,9,-34,15,0.00
2013-10-26,58.0,39.4,24.0,34.0,27.6,22.0,92,68,30,30.38,30.13,7,-87,14,0.00
2013-10-27,68.0,49.9,36.0,44.0,35.1,-99.9,91,63,32,30.16,30.08,6,2,13,0.00
2013-10-28,69.0,52.8,40.0,50.0,45.3,37.0,91,77,44,30.30,30.15,4,1,8,0.00
2013-10-29,72.0,57.0,47.0,54.0,49.1,44.0,91,77,47,30.37,30.29,3,1,7,0.00
2013-10-30,77.0,57.8,47.0,58.0,50.9,45.0,91,80,45,30.32,30.19,6,2,13,0.00
2013-10-31,70.0,62.3,51.0,60.0,54.2,49.0,92,76,59,30.24,29.96,8,4,16,0.00
2013-11-1,70.0,66.5,60.0,64.0,61.6,56.0,91,84,75,29.92,29.71,12,-103,25,0.00
2013-11-2,68.0,50.2,47.0,57.0,30.5,-99.9,92,75,34,29.91,29.75,8,2,17,0.00
2013-11-3,61.0,45.5,33.0,40.0,27.9,-99.9,92,65,33,30.39,30.00,8,-14,15,0.00
2013-11-4,55.0,38.4,32.0,35.0,14.5,-99.9,92,59,36,30.57,30.39,5,2,11,0.00
2013-11-5,56.0,46.2,34.0,47.0,37.8,28.0,84,72,56,30.58,30.47,5,-19,12,0.00
2013-11-6,71.0,55.4,43.0,53.0,46.7,39.0,90,74,48,30.47,30.17,6,2,11,0.00
2013-11-7,65.0,46.7,41.0,55.0,24.4,-99.9,92,63,44,30.15,29.99,8,4,19,0.00
2013-11-8,55.0,34.0,28.0,33.0,8.6,-99.9,92,56,25,30.35,30.24,9,3,17,0.00
2013-11-9,57.0,38.7,25.0,33.0,24.3,-99.9,91,65,28,30.40,30.22,7,2,15,0.00
2013-11-10,70.0,45.1,31.0,38.0,15.0,-99.9,92,47,22,30.26,30.11,10,-76,23,0.00
2013-11-11,61.0,39.2,28.0,30.0,16.2,-99.9,89,56,25,30.38,30.19,5,2,11,0.00
2013-11-12,58.0,35.7,31.0,37.0,8.1,-99.9,90,55,35,30.46,30.09,9,-21,23,0.00
2013-11-13,45.0,29.1,20.0,23.0,10.0,-99.9,90,57,28,30.56,30.46,10,4,18,0.00
2013-11-14,58.0,34.7,18.0,27.0,19.8,16.0,90,63,23,30.49,30.36,7,-20,20,0.00
2013-11-15,59.0,40.7,23.0,44.0,32.0,21.0,90,74,37,30.38,30.24,5,1,10,0.00
2013-11-16,63.0,52.5,47.0,54.0,48.9,44.0,91,87,71,30.31,30.24,2,1,5,0.00
2013-11-17,66.0,60.0,51.0,62.0,56.0,48.0,92,86,74,30.25,29.93,7,3,12,0.00
2013-11-18,73.0,54.0,53.0,64.0,25.1,-99.9,91,53,30,30.03,29.86,10,5,23,0.00
2013-11-19,54.0,46.2,36.0,30.0,25.6,22.0,77,45,29,30.31,30.03,8,3,17,0.00
2013-11-20,52.0,41.7,35.0,31.0,24.9,-99.9,74,54,39,30.48,30.32,7,3,17,0.00
2013-11-21,60.0,49.2,41.0,42.0,37.9,31.0,74,65,50,30.53,30.42,6,3,13,0.00
2013-11-22,68.0,59.6,48.0,57.0,51.4,41.0,86,74,62,30.44,30.13,6,-52,13,0.00
2013-11-23,61.0,54.1,42.0,57.0,37.5,-99.9,90,58,26,30.22,30.08,8,-155,16,0.00
2013-11-24,42.0,32.1,21.0,18.0,3.5,-99.9,74,32,19,30.56,30.22,11,-22,21,0.00
2013-11-25,42.0,30.4,15.0,20.0,10.2,5.0,89,48,21,30.59,30.40,6,-20,11,0.00
2013-11-26,56.0,40.1,32.0,53.0,33.6,12.0,92,80,35,30.40,29.66,8,-66,36,0.00
2013-11-27,45.0,39.7,29.0,42.0,32.3,13.0,90,75,48,30.18,29.54,11,-94,21,0.00
2013-11-28,45.0,30.2,18.0,23.0,13.8,-99.9,90,58,28,30.50,30.18,8,-9,14,0.00
2013-11-29,50.0,30.3,20.0,25.0,20.9,17.0,91,72,33,30.64,30.49,6,2,13,0.00
2013-11-30,47.0,32.9,25.0,27.0,22.7,20.0,90,67,41,30.67,30.41,6,2,11,0.00
2013-12-1,59.0,36.9,22.0,33.0,25.9,19.0,90,69,33,30.39,30.06,4,2,8,0.00
2013-12-2,59.0,42.5,27.0,39.0,33.7,25.0,91,73,46,30.05,29.86,5,2,10,0.00
2013-12-3,57.0,44.3,30.0,47.0,36.9,-99.9,91,79,67,30.01,29.90,6,2,11,0.00
2013-12-4,60.0,53.2,50.0,55.0,49.3,45.0,91,86,78,30.10,30.00,4,2,8,0.00
2013-12-5,65.0,62.2,57.0,62.0,59.2,55.0,91,89,86,30.15,30.06,7,5,14,0.00
2013-12-6,75.0,50.0,65.0,63.0,15.1,-99.9,89,52,59,30.10,30.00,11,-64,21,0.00
2013-12-7,69.0,47.2,43.0,62.0,36.9,-99.9,91,76,70,30.47,30.03,7,4,17,0.00
2013-12-8,42.0,35.5,32.0,32.0,29.5,26.0,90,79,57,30.47,30.35,5,4,12,0.00
2013-12-9,44.0,37.9,33.0,41.0,35.2,31.0,91,91,89,30.19,30.11,5,2,11,0.00
2013-12-10,51.0,39.2,27.0,43.0,29.2,-99.9,91,77,50,30.34,29.96,9,4,14,0.00
2013-12-11,49.0,31.8,19.0,27.0,22.9,17.0,91,73,34,30.46,30.32,6,2,10,0.00
2013-12-12,44.0,31.0,22.0,26.0,18.9,10.0,91,64,25,30.44,30.30,7,3,14,0.00
2013-12-13,51.0,28.7,18.0,27.0,21.6,15.0,90,77,27,30.40,30.29,7,1,12,0.00
2013-12-14,47.0,37.0,33.0,39.0,30.8,27.0,90,79,47,30.31,29.84,5,2,13,0.00
2013-12-15,51.0,39.5,28.0,35.0,28.6,25.0,91,67,44,30.10,29.77,8,3,15,0.00
2013-12-16,56.0,36.1,24.0,32.0,27.6,22.0,91,74,37,30.19,30.10,5,2,9,0.00
2013-12-17,61.0,42.5,28.0,35.0,30.1,26.0,91,66,36,30.14,29.91,8,3,15,0.00
2013-12-18,49.0,38.0,26.0,30.0,19.8,15.0,85,52,24,30.31,30.06,8,3,15,0.00
2013-12-19,62.0,44.3,23.0,26.0,22.7,20.0,90,49,22,30.34,30.24,7,3,14,0.00
2013-12-20,64.0,41.2,35.0,48.0,7.9,-99.9,82,46,40,30.26,30.16,10,5,19,0.00
2013-12-21,72.0,37.7,42.0,62.0,-7.1,-99.9,90,45,60,30.16,30.06,12,6,24,0.00
2013-12-22,74.0,35.8,62.0,65.0,-14.1,-99.9,90,44,67,30.10,30.03,12,-51,27,0.00
2013-12-23,64.0,54.4,44.0,61.0,45.4,-99.9,91,78,57,30.21,30.05,8,-29,21,0.00
2013-12-24,45.0,38.8,29.0,29.0,21.6,12.0,61,50,36,30.46,30.19,9,6,21,0.00
2013-12-25,41.0,28.8,20.0,19.0,11.1,7.0,89,50,26,30.55,30.42,4,2,8,0.00
2013-12-26,53.0,31.7,20.0,25.0,21.1,17.0,90,69,30,30.42,30.28,6,2,11,0.00
2013-12-27,53.0,34.9,20.0,29.0,20.0,16.0,91,63,24,30.49,30.39,4,2,7,0.00
2013-12-28,57.0,40.2,20.0,37.0,26.3,18.0,90,63,27,30.43,30.21,5,2,9,0.00
2013-12-29,55.0,44.8,36.0,46.0,40.6,34.0,91,85,70,30.20,29.77,8,3,19,0.00
2013-12-30,52.0,41.7,31.0,40.0,34.7,29.0,92,77,56,30.16,29.96,4,2,12,0.00
2013-12-31,49.0,37.2,28.0,34.0,24.2,-99.9,91,66,29,30.39,30.15,9,3,18,0.00
2014-1-1,51.0,35.9,26.0,28.0,24.5,22.0,91,68,32,30.43,30.18,7,2,12,0.00
2014-1-2,47.0,39.6,31.0,42.0,34.9,28.0,90,83,67,30.18,29.65,10,3,17,0.00